Time;durP1;ratioP1;P1;durP2;ratioP2;P2;SDS_P1;SDS_P2;PMS_P1;PMS_P2;Temp;Humidity;BMP_temperature;BMP_pressure;BME280_temperature;BME280_humidity;BME280_pressure;Samples;Min_cycle;Max_cycle;Signal;HPM_P1;HPM_P2
2022/05/11 00:02:01;;;;;;;17.27;10.68;;;17.30;99.90;;;;;;4995012;28;20213;-74
2022/05/11 00:04:28;;;;;;;14.32;10.93;;;17.20;99.90;;;;;;4994740;28;20651;-69
2022/05/11 00:06:55;;;;;;;16.15;10.82;;;17.30;99.90;;;;;;4995135;28;20215;-66
2022/05/11 00:09:21;;;;;;;12.30;10.30;;;17.20;99.90;;;;;;4994069;28;20213;-66
2022/05/11 00:11:48;;;;;;;14.75;11.50;;;17.20;99.90;;;;;;4994612;28;20224;-66
2022/05/11 00:14:15;;;;;;;16.75;10.85;;;17.10;99.90;;;;;;4994163;28;20205;-66
2022/05/11 00:16:43;;;;;;;14.52;10.52;;;17.10;99.90;;;;;;4994295;28;20205;-66
2022/05/11 00:19:10;;;;;;;16.08;11.25;;;17.10;99.90;;;;;;4993182;28;20667;-66
2022/05/11 00:21:37;;;;;;;13.90;10.55;;;17.10;99.90;;;;;;4994633;28;20300;-66
2022/05/11 00:24:05;;;;;;;15.63;10.20;;;17.10;99.90;;;;;;4993623;28;20204;-66
2022/05/11 00:26:32;;;;;;;16.42;12.15;;;17.10;99.90;;;;;;4994529;28;20663;-66
2022/05/11 00:28:59;;;;;;;18.13;10.80;;;17.00;99.90;;;;;;4994129;28;20292;-66
2022/05/11 00:31:25;;;;;;;14.00;11.70;;;17.00;99.90;;;;;;4994453;28;20215;-66
2022/05/11 00:33:53;;;;;;;13.95;11.00;;;17.10;99.90;;;;;;4993111;28;20244;-66
2022/05/11 00:36:20;;;;;;;14.52;11.80;;;17.10;99.90;;;;;;4993738;28;20655;-66
2022/05/11 00:38:47;;;;;;;16.83;11.73;;;17.00;99.90;;;;;;4993077;28;20209;-66
2022/05/11 00:41:14;;;;;;;16.40;12.05;;;16.90;99.90;;;;;;4994723;28;20628;-66
2022/05/11 00:43:43;;;;;;;15.20;11.20;;;17.00;99.90;;;;;;4993493;28;20201;-66
2022/05/11 00:46:18;;;;;;;14.45;11.15;;;17.20;99.90;;;;;;4993689;28;20211;-66
2022/05/11 00:51:39;;;;;;;14.95;11.65;;;17.20;86.90;;;;;;4993982;28;20675;-67
2022/05/11 00:54:07;;;;;;;17.27;11.77;;;17.30;11.20;;;;;;4993127;28;20609;-66
2022/05/11 00:56:36;;;;;;;18.15;11.60;;;17.30;1.00;;;;;;4993963;28;20208;-66
2022/05/11 00:59:10;;;;;;;15.48;10.90;;;17.20;1.00;;;;;;4992659;28;20205;-66
2022/05/11 01:01:37;;;;;;;14.95;11.40;;;17.30;1.00;;;;;;4993081;28;20208;-66
2022/05/11 01:04:09;;;;;;;12.52;10.20;;;17.20;1.00;;;;;;4993161;28;20672;-66
2022/05/11 01:06:38;;;;;;;15.77;11.13;;;17.20;37.20;;;;;;4992560;28;20205;-66
2022/05/11 01:09:06;;;;;;;14.90;10.85;;;17.10;40.90;;;;;;4991928;28;20203;-66
2022/05/11 01:11:37;;;;;;;15.20;11.60;;;17.20;99.60;;;;;;4993533;28;20679;-66
2022/05/11 01:14:06;;;;;;;17.23;11.45;;;17.20;99.90;;;;;;4993077;28;20201;-66
2022/05/11 01:16:33;;;;;;;15.30;11.27;;;17.30;99.90;;;;;;4991904;28;20201;-66
2022/05/11 01:19:00;;;;;;;16.70;11.57;;;17.20;99.90;;;;;;4977822;28;20197;-66
2022/05/11 01:21:46;;;;;;;16.73;11.27;;;16.70;99.90;;;;;;4991845;28;20207;-66
2022/05/11 01:24:32;;;;;;;17.25;11.10;;;16.80;99.90;;;;;;4992833;28;20564;-66
2022/05/11 01:26:59;;;;;;;16.45;11.63;;;17.00;99.90;;;;;;4992387;28;20207;-66
2022/05/11 01:29:27;;;;;;;19.25;12.23;;;16.80;99.90;;;;;;4992603;28;20547;-66
2022/05/11 01:31:54;;;;;;;16.05;11.40;;;16.50;99.90;;;;;;4993479;28;20215;-66
2022/05/11 01:34:24;;;;;;;17.45;12.15;;;16.30;99.90;;;;;;4992205;28;20205;-66
2022/05/11 01:36:56;;;;;;;17.08;12.35;;;16.50;99.90;;;;;;4993155;28;20212;-66
2022/05/11 01:39:23;;;;;;;17.17;12.18;;;16.40;99.90;;;;;;4992206;28;20208;-66
2022/05/11 01:41:54;;;;;;;16.15;12.57;;;16.30;99.90;;;;;;4993305;28;20664;-66
2022/05/11 01:44:22;;;;;;;17.67;12.73;;;16.40;99.90;;;;;;4992804;28;20608;-66
2022/05/11 01:46:51;;;;;;;16.23;12.68;;;16.40;99.90;;;;;;4992233;28;20197;-66
2022/05/11 01:49:19;;;;;;;18.48;12.75;;;16.40;99.90;;;;;;4991231;28;20197;-66
2022/05/11 01:51:46;;;;;;;20.05;13.18;;;16.40;99.90;;;;;;4992534;28;20204;-66
2022/05/11 01:54:14;;;;;;;19.13;12.45;;;16.30;99.90;;;;;;4992469;28;20278;-66
2022/05/11 01:56:41;;;;;;;18.00;12.70;;;16.20;99.90;;;;;;4992980;28;20208;-66
2022/05/11 01:59:10;;;;;;;19.17;12.70;;;16.20;99.90;;;;;;4991885;28;20220;-66
2022/05/11 02:01:40;;;;;;;17.20;12.65;;;16.20;99.90;;;;;;4992669;28;20759;-66
2022/05/11 02:07:49;;;;;;;16.70;13.13;;;16.20;99.90;;;;;;4993632;28;20232;-66
2022/05/11 02:09:41;;;;;;;15.68;12.30;;;16.10;99.90;;;;;;4992130;28;20574;-68
2022/05/11 02:12:09;;;;;;;19.02;13.23;;;16.10;99.90;;;;;;4992921;28;20251;-73
2022/05/11 02:14:37;;;;;;;17.10;13.40;;;15.90;99.90;;;;;;4985929;28;20209;-73
2022/05/11 02:17:05;;;;;;;18.50;13.03;;;15.90;99.90;;;;;;4991520;28;20205;-73
2022/05/11 02:19:32;;;;;;;15.97;12.53;;;16.00;99.90;;;;;;4990498;28;20209;-73
2022/05/11 02:21:59;;;;;;;16.43;11.13;;;16.10;99.90;;;;;;4979338;28;20224;-74
2022/05/11 02:24:26;;;;;;;14.67;10.70;;;16.20;99.90;;;;;;4977179;28;20216;-73
2022/05/11 02:26:52;;;;;;;13.27;10.40;;;16.10;99.90;;;;;;5000956;28;20574;-73
2022/05/11 02:29:21;;;;;;;14.95;10.80;;;15.90;99.90;;;;;;4991759;28;20205;-73
2022/05/11 02:31:50;;;;;;;12.60;10.33;;;15.90;99.90;;;;;;4991948;28;20220;-73
2022/05/11 02:36:57;;;;;;;13.20;9.70;;;16.00;99.90;;;;;;4991313;28;20393;-73
2022/05/11 02:39:24;;;;;;;13.40;10.55;;;16.00;99.90;;;;;;4992414;28;20290;-73
2022/05/11 02:41:52;;;;;;;13.95;10.40;;;15.90;99.90;;;;;;4991741;28;20300;-73
2022/05/11 02:44:18;;;;;;;12.25;9.68;;;16.00;99.90;;;;;;4991771;28;20244;-73
2022/05/11 02:46:45;;;;;;;15.45;10.05;;;16.20;99.90;;;;;;4992085;28;20297;-73
2022/05/11 02:49:13;;;;;;;14.07;9.90;;;16.20;99.90;;;;;;4990947;28;20197;-73
2022/05/11 02:51:40;;;;;;;18.13;10.27;;;16.10;99.90;;;;;;4992340;28;20201;-73
2022/05/11 02:54:07;;;;;;;14.43;10.43;;;16.10;99.90;;;;;;4991701;28;20236;-73
2022/05/11 02:56:34;;;;;;;13.52;10.60;;;16.10;99.90;;;;;;4992844;28;20413;-73
2022/05/11 02:59:01;;;;;;;13.85;10.00;;;16.00;99.90;;;;;;4991514;28;20209;-73
2022/05/11 03:01:27;;;;;;;14.85;10.05;;;16.10;99.90;;;;;;4992172;28;20197;-73
2022/05/11 03:03:54;;;;;;;15.85;11.23;;;16.10;99.90;;;;;;4991224;28;20316;-73
2022/05/11 03:06:22;;;;;;;15.15;11.07;;;16.00;99.90;;;;;;4992403;28;20205;-73
2022/05/11 03:08:49;;;;;;;15.43;10.13;;;16.00;99.90;;;;;;4990891;28;20224;-73
2022/05/11 03:11:16;;;;;;;16.92;10.68;;;16.00;99.90;;;;;;4992419;28;20201;-73
2022/05/11 03:13:43;;;;;;;16.48;10.90;;;16.00;99.90;;;;;;4991230;28;20217;-73
2022/05/11 03:16:10;;;;;;;16.90;11.07;;;15.90;99.90;;;;;;4991544;28;20201;-73
2022/05/11 03:18:37;;;;;;;17.95;11.27;;;16.00;99.90;;;;;;4990366;28;20555;-73
2022/05/11 03:21:04;;;;;;;16.17;11.33;;;16.00;99.90;;;;;;4991666;28;20212;-73
2022/05/11 03:23:32;;;;;;;16.02;11.50;;;15.90;99.90;;;;;;4990740;28;20193;-73
2022/05/11 03:25:58;;;;;;;14.73;11.73;;;15.90;99.90;;;;;;4991258;28;20236;-73
2022/05/11 03:28:26;;;;;;;16.45;11.82;;;15.80;99.90;;;;;;4991936;28;20212;-73
2022/05/11 03:30:53;;;;;;;17.50;12.27;;;15.70;99.90;;;;;;4992256;28;20201;-73
2022/05/11 03:36:08;;;;;;;15.30;11.55;;;15.90;99.90;;;;;;4965150;28;20758;-73
2022/05/11 03:38:36;;;;;;;19.95;12.50;;;15.90;99.90;;;;;;4981871;28;20197;-73
2022/05/11 03:41:03;;;;;;;17.20;12.48;;;15.80;99.90;;;;;;4995232;28;20676;-73
2022/05/11 03:43:29;;;;;;;14.93;11.77;;;15.80;99.90;;;;;;4994521;28;20201;-73
2022/05/11 03:45:56;;;;;;;14.43;10.82;;;15.80;99.90;;;;;;4995383;28;20209;-73
2022/05/11 03:48:23;;;;;;;15.80;10.68;;;15.80;99.90;;;;;;4994107;28;20690;-73
2022/05/11 03:50:50;;;;;;;14.15;9.52;;;15.90;99.90;;;;;;4995090;28;20205;-73
2022/05/11 03:53:17;;;;;;;15.40;11.40;;;15.90;99.90;;;;;;4994760;28;20228;-73
2022/05/11 03:55:45;;;;;;;18.40;11.05;;;16.00;99.90;;;;;;4994962;28;20211;-73
2022/05/11 03:58:13;;;;;;;14.45;10.68;;;15.80;99.90;;;;;;4994340;28;20201;-73
2022/05/11 04:00:40;;;;;;;19.33;11.90;;;15.90;99.90;;;;;;4995113;28;20629;-73
2022/05/11 04:03:07;;;;;;;15.53;10.83;;;15.90;99.90;;;;;;4994797;28;20208;-73
2022/05/11 04:05:34;;;;;;;15.43;11.00;;;15.90;99.90;;;;;;4993484;28;20205;-73
2022/05/11 04:08:01;;;;;;;16.70;11.90;;;15.90;99.90;;;;;;4994195;28;20565;-73
2022/05/11 04:10:28;;;;;;;16.38;10.73;;;15.90;99.90;;;;;;4994472;28;20216;-73
2022/05/11 04:12:56;;;;;;;14.00;10.77;;;15.90;99.90;;;;;;4994006;28;20683;-73
2022/05/11 04:15:23;;;;;;;15.32;10.68;;;15.90;99.90;;;;;;4994173;28;20212;-73
2022/05/11 04:17:50;;;;;;;16.03;11.97;;;15.80;99.90;;;;;;4993327;28;20205;-73
2022/05/11 04:20:19;;;;;;;14.80;10.98;;;15.90;99.90;;;;;;4994157;28;20213;-73
2022/05/11 04:22:47;;;;;;;12.82;11.15;;;15.90;99.90;;;;;;4994331;28;20288;-73
2022/05/11 04:25:15;;;;;;;19.02;11.40;;;16.00;99.90;;;;;;4989922;28;20216;-73
2022/05/11 04:27:42;;;;;;;15.93;11.77;;;15.80;99.90;;;;;;4994024;28;20300;-73
2022/05/11 04:30:12;;;;;;;17.40;12.77;;;15.80;99.90;;;;;;4993646;28;20201;-73
2022/05/11 04:32:39;;;;;;;17.20;12.25;;;15.80;99.90;;;;;;4994056;28;20224;-73
2022/05/11 04:35:07;;;;;;;15.48;11.68;;;15.80;99.90;;;;;;4993145;28;20201;-73
2022/05/11 04:37:34;;;;;;;15.98;12.35;;;15.90;99.90;;;;;;4993208;28;20567;-73
2022/05/11 04:40:01;;;;;;;13.13;10.25;;;16.00;99.90;;;;;;4993554;28;20240;-73
2022/05/11 04:42:27;;;;;;;15.23;10.67;;;16.00;99.90;;;;;;4993188;28;20683;-73
2022/05/11 04:44:54;;;;;;;14.43;10.53;;;16.00;99.90;;;;;;4994265;28;20652;-73
2022/05/11 04:47:23;;;;;;;13.03;10.03;;;15.90;99.90;;;;;;4993425;28;20205;-73
2022/05/11 04:49:53;;;;;;;14.02;10.48;;;15.90;99.90;;;;;;4992967;28;20569;-73
2022/05/11 04:52:20;;;;;;;16.13;10.98;;;16.10;99.90;;;;;;4993675;28;20247;-73
2022/05/11 04:54:49;;;;;;;14.83;10.33;;;16.10;99.90;;;;;;4993425;28;20225;-73
2022/05/11 04:57:17;;;;;;;15.60;11.77;;;16.20;99.90;;;;;;4993753;28;20643;-73
2022/05/11 04:59:44;;;;;;;13.57;10.63;;;16.30;99.90;;;;;;4993090;28;20203;-73
2022/05/11 05:02:15;;;;;;;13.25;10.02;;;16.20;99.90;;;;;;4993367;28;20207;-73
2022/05/11 05:04:44;;;;;;;15.35;10.15;;;16.20;99.90;;;;;;4992995;28;20201;-73
2022/05/11 05:07:11;;;;;;;27.90;23.57;;;16.30;99.90;;;;;;4993519;28;20247;-73
2022/05/11 05:09:38;;;;;;;13.40;9.80;;;16.40;99.90;;;;;;4993390;28;20211;-73
2022/05/11 05:12:06;;;;;;;14.32;10.30;;;16.30;99.90;;;;;;4993577;28;20814;-73
2022/05/11 05:14:33;;;;;;;15.60;9.77;;;16.50;99.90;;;;;;4992536;28;20228;-73
2022/05/11 05:17:04;;;;;;;13.73;9.98;;;16.40;99.90;;;;;;4992784;28;20204;-73
2022/05/11 05:19:31;;;;;;;14.48;9.65;;;16.40;99.90;;;;;;4992302;28;20228;-73
2022/05/11 05:22:02;;;;;;;19.08;11.00;;;16.50;99.90;;;;;;4972614;28;20573;-73
2022/05/11 05:24:29;;;;;;;14.88;11.50;;;16.50;99.90;;;;;;4992269;28;20223;-74
2022/05/11 05:26:56;;;;;;;16.73;12.05;;;16.60;99.90;;;;;;4993463;28;20644;-73
2022/05/11 05:32:08;;;;;;;12.13;9.48;;;16.60;99.90;;;;;;4992382;28;20204;-69
2022/05/11 05:34:35;;;;;;;14.77;10.27;;;16.60;99.90;;;;;;4992344;28;20656;-69
2022/05/11 05:37:04;;;;;;;14.57;10.60;;;16.80;99.90;;;;;;4992404;28;20204;-69
2022/05/11 05:39:31;;;;;;;12.98;9.93;;;16.70;99.90;;;;;;4992273;28;20204;-69
2022/05/11 05:41:57;;;;;;;13.50;9.43;;;17.00;99.90;;;;;;4993051;28;20227;-69
2022/05/11 05:44:29;;;;;;;14.68;10.23;;;17.10;99.90;;;;;;4987942;28;20240;-69
2022/05/11 05:46:57;;;;;;;12.45;9.43;;;17.30;99.90;;;;;;4992942;28;20208;-69
2022/05/11 05:49:23;;;;;;;12.60;9.35;;;17.30;99.90;;;;;;4991793;28;20716;-69
2022/05/11 05:51:50;;;;;;;14.05;9.60;;;17.40;99.90;;;;;;4992923;28;20293;-69
2022/05/11 05:54:18;;;;;;;13.40;9.27;;;17.50;99.90;;;;;;4992200;28;20588;-68
2022/05/11 05:56:45;;;;;;;13.93;10.10;;;17.70;99.90;;;;;;4992664;28;20639;-68
2022/05/11 05:59:14;;;;;;;13.88;9.48;;;17.80;99.90;;;;;;4992244;28;20219;-68
2022/05/11 06:01:41;;;;;;;14.77;10.25;;;17.70;99.90;;;;;;4992513;28;20196;-69
2022/05/11 06:04:08;;;;;;;12.00;9.70;;;17.70;99.90;;;;;;4992038;28;20205;-69
2022/05/11 06:06:35;;;;;;;14.60;10.18;;;17.70;99.90;;;;;;4996896;28;20208;-69
2022/05/11 06:09:03;;;;;;;15.80;9.60;;;17.90;99.90;;;;;;4998890;28;20521;-69
2022/05/11 06:11:31;;;;;;;15.10;9.45;;;18.00;99.90;;;;;;4988931;28;20212;-69
2022/05/11 06:13:59;;;;;;;14.45;9.32;;;18.00;99.90;;;;;;4992662;28;20493;-69
2022/05/11 06:16:26;;;;;;;15.73;10.43;;;18.10;99.90;;;;;;4984966;28;20210;-69
2022/05/11 06:18:53;;;;;;;12.77;9.32;;;18.20;99.90;;;;;;4990408;28;20204;-70
2022/05/11 06:21:21;;;;;;;14.07;9.80;;;18.30;99.90;;;;;;4992164;28;20709;-69
2022/05/11 06:23:48;;;;;;;12.35;9.70;;;18.30;99.90;;;;;;4991977;28;20587;-69
2022/05/11 06:26:16;;;;;;;11.55;9.07;;;18.30;99.90;;;;;;4999729;28;20207;-69
2022/05/11 06:28:46;;;;;;;14.00;10.07;;;18.40;7.90;;;;;;4993814;28;20647;-69
2022/05/11 06:31:14;;;;;;;13.48;9.63;;;18.50;1.00;;;;;;4991965;28;20211;-69
2022/05/11 06:33:45;;;;;;;12.32;9.38;;;18.60;99.90;;;;;;4992421;28;20710;-69
2022/05/11 06:36:13;;;;;;;12.45;9.70;;;18.60;81.60;;;;;;4991914;28;20296;-70
2022/05/11 06:38:40;;;;;;;13.77;10.48;;;18.60;49.90;;;;;;4992137;28;20209;-68
2022/05/11 06:41:11;;;;;;;14.85;9.90;;;18.70;99.90;;;;;;4992172;28;20216;-68
2022/05/11 06:43:38;;;;;;;16.30;10.07;;;18.90;99.90;;;;;;4992130;28;20196;-68
2022/05/11 06:46:06;;;;;;;12.13;10.07;;;19.00;1.00;;;;;;4992530;28;20201;-69
2022/05/11 06:48:34;;;;;;;14.20;9.80;;;19.00;1.00;;;;;;4992274;28;20538;-68
2022/05/11 06:51:01;;;;;;;12.68;10.07;;;19.00;1.00;;;;;;4991697;28;20702;-69
2022/05/11 06:53:28;;;;;;;13.07;10.10;;;19.00;1.00;;;;;;4992762;28;20205;-68
2022/05/11 07:01:24;;;;;;;15.88;10.45;;;19.00;1.00;;;;;;4973654;28;20570;-68
2022/05/11 07:03:51;;;;;;;13.98;10.52;;;19.00;1.00;;;;;;4977457;28;20217;-68
2022/05/11 07:06:18;;;;;;;14.63;10.60;;;19.10;1.00;;;;;;4994031;28;20205;-68
2022/05/11 07:08:46;;;;;;;12.73;10.07;;;19.40;49.40;;;;;;4995606;28;20203;-69
2022/05/11 07:13:57;;;;;;;15.85;10.82;;;19.40;1.00;;;;;;4977388;28;20788;-68
2022/05/11 07:16:27;;;;;;;16.55;10.52;;;19.60;2.40;;;;;;4984275;28;20204;-69
2022/05/11 07:18:54;;;;;;;14.73;10.27;;;19.70;1.00;;;;;;4995024;28;20627;-69
2022/05/11 07:21:21;;;;;;;15.25;10.63;;;19.70;1.00;;;;;;4992679;28;20209;-69
2022/05/11 07:23:48;;;;;;;15.77;10.85;;;19.80;1.00;;;;;;4991727;28;20201;-69
2022/05/11 07:26:15;;;;;;;14.60;10.43;;;19.90;1.00;;;;;;4994012;28;20664;-69
2022/05/11 07:28:41;;;;;;;15.30;11.10;;;20.00;1.00;;;;;;4994694;28;20209;-69
2022/05/11 07:31:08;;;;;;;12.48;11.02;;;20.00;1.00;;;;;;4991257;28;20592;-68
2022/05/11 07:33:37;;;;;;;14.10;10.25;;;19.90;1.00;;;;;;4995210;28;20197;-68
2022/05/11 07:36:04;;;;;;;16.02;10.75;;;20.20;1.00;;;;;;4995788;28;20569;-68
2022/05/11 07:38:32;;;;;;;15.40;10.82;;;20.40;1.00;;;;;;4995100;28;20207;-68
2022/05/11 07:40:58;;;;;;;11.32;8.70;;;20.60;1.00;;;;;;4994708;28;20706;-68
2022/05/11 07:43:25;;;;;;;11.05;9.43;;;20.50;1.00;;;;;;4993844;28;20208;-69
2022/05/11 07:45:52;;;;;;;13.07;9.23;;;20.60;99.90;;;;;;4979245;28;20216;-69
2022/05/11 07:48:20;;;;;;;12.85;10.07;;;20.50;59.80;;;;;;4989673;28;20204;-69
2022/05/11 07:50:49;;;;;;;12.52;9.13;;;20.40;1.00;;;;;;4991669;28;20425;-69
2022/05/11 07:53:16;;;;;;;11.90;9.55;;;20.50;1.00;;;;;;4990595;28;20213;-69
2022/05/11 07:55:44;;;;;;;14.48;9.88;;;20.50;99.90;;;;;;4991129;28;20265;-69
2022/05/11 08:00:59;;;;;;;13.93;9.15;;;20.50;1.00;;;;;;4965804;28;20208;-69
2022/05/11 08:03:25;;;;;;;10.63;9.20;;;20.30;1.00;;;;;;4990845;28;20224;-69
2022/05/11 08:05:54;;;;;;;12.05;9.50;;;20.10;1.00;;;;;;4991167;28;20213;-69
2022/05/11 08:08:21;;;;;;;12.25;9.52;;;20.10;99.90;;;;;;4989296;28;20549;-69
2022/05/11 08:10:48;;;;;;;12.98;8.60;;;20.20;1.00;;;;;;4987707;28;20212;-69
2022/05/11 08:13:16;;;;;;;11.70;9.40;;;20.20;1.00;;;;;;4986435;28;20209;-69
2022/05/11 08:15:47;;;;;;;13.05;10.13;;;20.20;99.90;;;;;;4986546;28;20225;-69
2022/05/11 08:18:15;;;;;;;12.05;9.20;;;20.20;1.00;;;;;;4991978;28;20240;-69
2022/05/11 08:20:46;;;;;;;13.90;9.32;;;20.30;1.00;;;;;;4989730;28;20205;-69
2022/05/11 08:23:15;;;;;;;13.68;9.75;;;20.30;99.90;;;;;;4993768;28;20262;-69
2022/05/11 08:25:46;;;;;;;10.88;9.75;;;20.40;1.00;;;;;;4991432;28;20208;-68
2022/05/11 08:28:15;;;;;;;10.40;8.95;;;20.60;1.00;;;;;;4993965;28;20711;-69
2022/05/11 08:33:28;;;;;;;12.60;9.07;;;21.00;1.00;;;;;;4989764;28;20215;-69
2022/05/11 08:35:58;;;;;;;14.02;8.55;;;21.10;1.00;;;;;;4992495;28;20225;-69
2022/05/11 08:38:29;;;;;;;9.52;7.90;;;21.30;99.10;;;;;;4993045;28;20197;-69
2022/05/11 08:41:00;;;;;;;8.68;7.65;;;21.40;99.90;;;;;;4974653;28;20570;-69
2022/05/11 08:43:31;;;;;;;10.50;8.45;;;21.50;1.00;;;;;;4990342;28;20212;-69
2022/05/11 08:46:07;;;;;;;9.70;7.63;;;21.50;99.90;;;;;;4993880;28;20197;-69
2022/05/11 08:48:45;;;;;;;10.88;8.02;;;21.60;99.90;;;;;;4993305;28;20243;-69
2022/05/11 08:51:21;;;;;;;8.90;7.75;;;21.80;99.90;;;;;;4992582;28;20196;-68
2022/05/11 08:53:58;;;;;;;9.98;7.85;;;22.10;99.90;;;;;;4993227;28;20207;-69
2022/05/11 08:56:31;;;;;;;9.15;7.78;;;22.40;99.90;;;;;;4975816;28;20210;-69
2022/05/11 08:58:58;;;;;;;11.73;8.32;;;22.80;93.40;;;;;;4988284;28;20236;-69
2022/05/11 09:01:31;;;;;;;10.88;8.48;;;23.10;1.00;;;;;;4974734;28;20253;-69
2022/05/11 09:04:00;;;;;;;11.95;7.18;;;23.40;1.00;;;;;;4980850;28;20205;-69
2022/05/11 09:06:29;;;;;;;12.13;7.25;;;23.40;99.90;;;;;;4992894;28;20262;-69
2022/05/11 09:08:59;;;;;;;12.13;7.72;;;23.70;72.00;;;;;;4992778;28;20552;-69
2022/05/11 09:11:29;;;;;;;10.88;7.07;;;23.90;1.00;;;;;;4991868;28;20201;-69
2022/05/11 09:13:58;;;;;;;7.20;6.15;;;24.30;1.00;;;;;;4992358;28;20197;-69
2022/05/11 09:16:27;;;;;;;9.57;6.50;;;24.20;1.00;;;;;;4992529;28;20267;-69
2022/05/11 09:18:56;;;;;;;6.88;6.22;;;24.30;1.00;;;;;;4992804;28;20204;-69
2022/05/11 09:21:34;;;;;;;7.60;5.88;;;24.40;1.00;;;;;;4993605;28;20287;-70
2022/05/11 09:24:13;;;;;;;10.82;6.85;;;24.90;1.00;;;;;;4989507;28;20239;-69
2022/05/11 09:26:44;;;;;;;9.73;6.65;;;24.80;1.00;;;;;;4974361;28;20205;-69
2022/05/11 09:29:21;;;;;;;8.13;6.65;;;24.80;1.00;;;;;;4991781;28;20216;-70
2022/05/11 09:31:51;;;;;;;11.27;6.10;;;24.90;1.00;;;;;;4991701;28;20204;-70
2022/05/11 09:34:27;;;;;;;8.32;6.80;;;25.10;1.00;;;;;;4992041;28;20268;-69
2022/05/11 09:36:58;;;;;;;9.27;6.75;;;25.30;1.00;;;;;;4992767;28;20271;-70
2022/05/11 09:39:28;;;;;;;7.78;6.05;;;25.00;1.00;;;;;;4990177;28;20204;-70
2022/05/11 09:42:11;;;;;;;7.65;6.85;;;25.70;1.00;;;;;;4992439;28;20284;-69
2022/05/11 09:44:43;;;;;;;6.80;6.20;;;25.50;1.00;;;;;;4992543;28;20295;-70
2022/05/11 09:47:28;;;;;;;9.32;7.03;;;25.50;1.00;;;;;;4973778;28;20240;-67
2022/05/11 09:49:57;;;;;;;9.32;6.22;;;25.80;1.00;;;;;;4984838;28;20263;-70
2022/05/11 09:52:35;;;;;;;6.70;6.03;;;25.50;1.00;;;;;;4992376;28;20205;-68
2022/05/11 09:55:16;;;;;;;8.38;6.25;;;25.90;1.00;;;;;;4986208;28;20259;-67
2022/05/11 09:57:54;;;;;;;8.27;6.15;;;25.90;99.90;;;;;;4976002;28;20234;-67
2022/05/11 10:00:26;;;;;;;7.43;5.95;;;26.00;99.90;;;;;;4996239;28;20299;-67
2022/05/11 10:02:57;;;;;;;6.95;5.72;;;26.30;99.90;;;;;;4998007;28;20209;-67
2022/05/11 10:05:27;;;;;;;8.88;5.65;;;26.20;99.90;;;;;;4992729;28;20205;-68
2022/05/11 10:08:00;;;;;;;8.10;6.28;;;26.30;99.90;;;;;;4992568;28;20215;-68
2022/05/11 10:10:38;;;;;;;6.72;5.80;;;26.40;99.90;;;;;;4991551;28;20274;-67
2022/05/11 10:13:26;;;;;;;5.82;5.30;;;26.50;99.90;;;;;;4974260;28;20219;-67
2022/05/11 10:21:53;;;;;;;7.57;5.32;;;26.80;99.90;;;;;;4992248;28;20207;-68
2022/05/11 10:24:35;;;;;;;6.88;5.15;;;26.80;99.90;;;;;;4991453;28;20255;-68
2022/05/11 10:27:10;;;;;;;6.03;5.43;;;26.30;99.90;;;;;;4992323;28;20212;-67
2022/05/11 10:29:57;;;;;;;6.40;5.55;;;26.60;99.90;;;;;;4984997;28;20648;-67
2022/05/11 10:32:29;;;;;;;7.90;5.70;;;27.20;99.90;;;;;;4992034;28;20429;-67
2022/05/11 10:35:07;;;;;;;4.93;4.53;;;27.10;99.90;;;;;;4991413;28;20225;-67
2022/05/11 10:37:40;;;;;;;11.40;5.35;;;27.50;99.90;;;;;;4991433;28;20678;-68
2022/05/11 10:40:22;;;;;;;6.38;5.00;;;26.90;99.90;;;;;;4993518;28;20231;-67
2022/05/11 10:43:17;;;;;;;5.47;4.95;;;27.30;99.90;;;;;;4984674;28;20563;-68
2022/05/11 10:45:50;;;;;;;6.05;4.50;;;27.20;99.90;;;;;;4979279;28;20700;-67
2022/05/11 10:48:36;;;;;;;4.18;3.83;;;27.20;99.90;;;;;;4977642;28;20212;-67
2022/05/11 10:51:10;;;;;;;5.18;3.95;;;27.50;99.90;;;;;;4961520;28;20263;-67
2022/05/11 10:53:42;;;;;;;4.57;4.15;;;27.40;99.90;;;;;;4982234;28;20519;-67
2022/05/11 10:56:31;;;;;;;5.57;3.92;;;26.40;99.90;;;;;;4996962;28;20221;-67
2022/05/11 10:59:38;;;;;;;6.57;4.00;;;26.50;99.90;;;;;;4995105;28;20695;-67
2022/05/11 11:02:25;;;;;;;5.47;4.25;;;27.50;99.90;;;;;;4916272;29;20196;-67
2022/05/11 11:05:03;;;;;;;7.72;4.20;;;27.60;99.90;;;;;;4993649;28;20300;-67
2022/05/11 11:07:36;;;;;;;9.23;4.13;;;27.50;99.90;;;;;;4991893;28;20205;-67
2022/05/11 11:10:14;;;;;;;6.90;3.55;;;27.40;99.90;;;;;;4971589;28;20205;-68
2022/05/11 11:12:55;;;;;;;4.43;3.97;;;27.60;99.90;;;;;;4996248;28;20563;-67
2022/05/11 11:15:28;;;;;;;10.40;4.50;;;27.60;99.90;;;;;;5003730;28;20584;-67
2022/05/11 11:17:56;;;;;;;4.28;3.63;;;28.00;99.90;;;;;;4976207;28;20202;-67
2022/05/11 11:20:25;;;;;;;5.57;3.78;;;28.00;99.90;;;;;;4989633;28;20284;-67
2022/05/11 11:23:02;;;;;;;4.47;3.85;;;28.20;99.90;;;;;;4994942;28;20205;-67
2022/05/11 11:25:44;;;;;;;7.13;4.20;;;28.20;99.90;;;;;;4995177;28;20854;-67
2022/05/11 11:28:14;;;;;;;4.80;3.95;;;28.10;99.90;;;;;;4981302;28;20574;-67
2022/05/11 11:30:43;;;;;;;9.18;4.10;;;28.10;99.90;;;;;;4995026;28;20212;-68
2022/05/11 11:33:21;;;;;;;5.13;4.13;;;27.90;99.90;;;;;;4994958;28;20264;-67
2022/05/11 11:35:54;;;;;;;5.35;4.13;;;28.20;99.90;;;;;;4994448;28;20220;-67
2022/05/11 11:38:30;;;;;;;4.72;3.70;;;28.30;99.90;;;;;;4994897;28;20581;-67
2022/05/11 11:41:12;;;;;;;6.47;4.05;;;28.10;99.90;;;;;;4976590;28;20220;-67
2022/05/11 11:43:51;;;;;;;4.32;3.78;;;28.40;99.90;;;;;;4977849;28;20206;-70
2022/05/11 11:46:34;;;;;;;6.18;3.92;;;28.40;99.90;;;;;;4995103;28;20196;-70
2022/05/11 11:49:04;;;;;;;7.13;4.43;;;28.30;99.90;;;;;;4994171;28;20200;-70
2022/05/11 11:51:34;;;;;;;5.88;3.97;;;27.90;99.90;;;;;;4994526;28;20201;-70
2022/05/11 11:54:01;;;;;;;6.43;4.05;;;28.10;99.90;;;;;;4994423;28;20201;-70
2022/05/11 11:56:47;;;;;;;4.82;4.00;;;28.00;99.90;;;;;;4993148;28;20248;-70
2022/05/11 11:59:33;;;;;;;9.57;4.32;;;28.00;99.90;;;;;;4994430;28;20231;-70
2022/05/11 12:02:11;;;;;;;5.03;4.40;;;28.10;99.90;;;;;;4993434;28;20738;-70
2022/05/11 12:04:41;;;;;;;5.53;3.90;;;28.00;99.90;;;;;;4993667;28;20208;-70
2022/05/11 12:15:35;;;;;;;5.18;3.85;;;27.90;99.90;;;;;;4989844;28;20312;-70
2022/05/11 12:18:23;;;;;;;9.75;3.97;;;28.30;99.90;;;;;;4993953;28;20205;-70
2022/05/11 12:20:49;;;;;;;5.88;3.83;;;28.50;99.90;;;;;;4978521;28;20197;-70
2022/05/11 12:23:21;;;;;;;5.50;3.80;;;28.30;99.90;;;;;;4981619;28;20216;-70
2022/05/11 12:25:53;;;;;;;5.93;3.78;;;28.10;99.90;;;;;;4990359;28;20645;-70
2022/05/11 12:28:23;;;;;;;8.73;4.45;;;28.60;99.90;;;;;;4980697;28;20260;-67
2022/05/11 12:30:50;;;;;;;4.10;3.60;;;28.60;99.90;;;;;;4990275;28;20212;-67
2022/05/11 12:33:24;;;;;;;5.22;3.60;;;28.10;99.90;;;;;;4994146;28;20232;-67
2022/05/11 12:35:52;;;;;;;3.97;3.67;;;28.60;99.90;;;;;;4994794;28;20663;-67
2022/05/11 12:38:30;;;;;;;6.18;3.75;;;28.30;99.90;;;;;;4989036;28;20213;-67
2022/05/11 12:40:59;;;;;;;4.75;3.65;;;28.30;99.90;;;;;;4975307;28;20251;-70
2022/05/11 12:43:28;;;;;;;4.78;3.78;;;28.60;99.90;;;;;;4977656;28;20563;-70
2022/05/11 12:45:58;;;;;;;5.47;4.15;;;28.30;99.90;;;;;;4988543;28;20201;-70
2022/05/11 12:48:31;;;;;;;6.20;4.07;;;27.90;99.90;;;;;;4993553;28;20260;-70
2022/05/11 12:51:02;;;;;;;5.35;4.10;;;27.70;99.90;;;;;;4974679;28;20244;-69
2022/05/11 12:53:31;;;;;;;7.53;4.03;;;28.00;99.90;;;;;;4991827;28;20671;-70
2022/05/11 12:56:24;;;;;;;5.75;4.13;;;28.30;99.90;;;;;;4993804;28;20225;-70
2022/05/11 12:58:52;;;;;;;5.57;3.80;;;28.30;99.90;;;;;;4962776;28;20213;-70
2022/05/11 13:01:21;;;;;;;6.18;3.70;;;28.40;99.90;;;;;;4992809;28;20205;-70
2022/05/11 13:03:51;;;;;;;5.63;3.50;;;28.40;99.90;;;;;;4991756;28;20259;-70
2022/05/11 13:06:26;;;;;;;4.80;3.70;;;28.10;99.90;;;;;;4993079;28;20201;-70
2022/05/11 13:08:56;;;;;;;7.55;3.97;;;28.20;99.90;;;;;;4993315;28;20210;-70
2022/05/11 13:11:26;;;;;;;5.28;3.80;;;28.40;99.90;;;;;;4994226;28;20641;-70
2022/05/11 13:13:57;;;;;;;6.25;3.42;;;28.50;99.90;;;;;;4992967;28;20216;-70
2022/05/11 13:16:27;;;;;;;7.45;3.75;;;28.70;99.90;;;;;;4993350;28;20225;-70
2022/05/11 13:19:11;;;;;;;3.67;3.38;;;28.40;99.90;;;;;;4991930;28;20213;-70
2022/05/11 13:21:38;;;;;;;9.00;3.78;;;28.60;99.90;;;;;;4988386;28;20260;-68
2022/05/11 13:24:07;;;;;;;4.47;3.70;;;28.70;99.90;;;;;;4991865;28;20200;-67
2022/05/11 13:26:40;;;;;;;8.23;3.95;;;29.00;99.90;;;;;;4973780;28;20211;-67
2022/05/11 13:29:17;;;;;;;7.30;3.85;;;28.70;99.90;;;;;;4985583;28;20604;-67
2022/05/11 13:31:46;;;;;;;7.47;3.78;;;28.60;99.90;;;;;;4992935;28;20206;-67
2022/05/11 13:34:31;;;;;;;6.15;3.50;;;28.70;99.90;;;;;;4993746;28;20209;-67
2022/05/11 13:37:19;;;;;;;5.18;3.65;;;28.70;99.90;;;;;;5089479;27;20566;-68